createdAt,value
2018-06-22T00:01:52.144Z,13.13
2018-06-22T00:04:22.845Z,12.53
2018-06-22T00:06:53.584Z,12.10
2018-06-22T00:09:24.453Z,12.00
2018-06-22T00:11:55.356Z,12.00
2018-06-22T00:14:26.110Z,11.33
2018-06-22T00:16:56.110Z,12.27
2018-06-22T00:19:26.845Z,11.77
2018-06-22T00:21:57.768Z,12.00
2018-06-22T00:24:27.799Z,12.43
2018-06-22T00:26:58.621Z,12.90
2018-06-22T00:29:29.527Z,13.57
2018-06-22T00:32:00.152Z,13.30
2018-06-22T00:34:30.828Z,13.00
2018-06-22T00:37:01.936Z,14.00
2018-06-22T00:39:32.484Z,15.30
2018-06-22T00:42:03.393Z,14.50
2018-06-22T00:44:33.774Z,14.40
2018-06-22T00:47:04.669Z,14.13
2018-06-22T00:49:35.613Z,13.67
2018-06-22T00:52:06.799Z,13.73
2018-06-22T00:54:37.809Z,13.30
2018-06-22T00:57:08.219Z,12.67
2018-06-22T00:59:38.282Z,12.40
2018-06-22T01:02:08.844Z,11.93
2018-06-22T01:04:39.709Z,12.87
2018-06-22T01:07:10.523Z,12.57
2018-06-22T01:09:41.142Z,12.37
2018-06-22T01:12:11.963Z,12.60
2018-06-22T01:14:42.605Z,12.50
2018-06-22T01:17:13.097Z,13.07
2018-06-22T01:19:43.927Z,13.37
2018-06-22T01:22:14.731Z,12.87
2018-06-22T01:24:45.625Z,12.37
2018-06-22T01:27:16.422Z,12.33
2018-06-22T01:29:47.029Z,12.97
2018-06-22T01:32:18.232Z,12.60
2018-06-22T01:34:48.287Z,12.17
2018-06-22T01:37:19.468Z,13.30
2018-06-22T01:39:50.230Z,13.70
2018-06-22T01:42:20.846Z,13.13
2018-06-22T01:44:51.484Z,13.50
2018-06-22T01:47:22.254Z,13.00
2018-06-22T01:49:53.033Z,12.57
2018-06-22T01:52:23.815Z,12.87
2018-06-22T01:54:54.425Z,12.87
2018-06-22T01:57:24.977Z,12.37
2018-06-22T01:59:55.637Z,12.20
2018-06-22T02:02:27.068Z,12.57
2018-06-22T02:04:58.006Z,13.17
2018-06-22T02:07:28.590Z,13.43
2018-06-22T02:09:59.576Z,12.93
2018-06-22T02:12:29.886Z,13.23
2018-06-22T02:15:00.678Z,12.93
2018-06-22T02:17:31.417Z,13.40
2018-06-22T02:20:02.271Z,13.60
2018-06-22T02:22:32.628Z,14.40
2018-06-22T02:25:03.215Z,15.27
2018-06-22T02:27:33.549Z,14.30
2018-06-22T02:30:04.292Z,15.33
2018-06-22T02:32:34.964Z,13.47
2018-06-22T02:35:05.488Z,13.77
2018-06-22T02:37:35.889Z,14.37
2018-06-22T02:40:06.376Z,13.07
2018-06-22T02:42:36.804Z,14.20
2018-06-22T02:45:07.465Z,14.33
2018-06-22T02:47:37.993Z,15.03
2018-06-22T02:50:08.521Z,13.53
2018-06-22T02:52:38.756Z,14.00
2018-06-22T02:55:09.249Z,13.90
2018-06-22T02:57:39.904Z,15.07
2018-06-22T03:00:10.911Z,14.40
2018-06-22T03:02:41.530Z,14.60
2018-06-22T03:05:12.370Z,13.67
2018-06-22T03:07:43.736Z,14.13
2018-06-22T03:10:14.983Z,14.37
2018-06-22T03:12:46.461Z,15.30
2018-06-22T03:15:17.981Z,15.17
2018-06-22T03:17:49.002Z,16.13
2018-06-22T03:20:20.074Z,14.57
2018-06-22T03:22:51.074Z,15.13
2018-06-22T03:25:21.787Z,14.83
2018-06-22T03:27:52.477Z,15.87
2018-06-22T03:30:23.301Z,14.73
2018-06-22T03:32:54.065Z,14.47
2018-06-22T03:35:24.826Z,15.27
2018-06-22T03:37:55.973Z,14.50
2018-06-22T03:40:26.752Z,15.00
2018-06-22T03:42:57.639Z,13.90
2018-06-22T03:45:28.864Z,15.30
2018-06-22T03:48:00.150Z,15.70
2018-06-22T03:50:30.419Z,16.43
2018-06-22T03:53:00.974Z,15.93
2018-06-22T03:55:31.877Z,15.63
2018-06-22T03:58:03.686Z,17.27
2018-06-22T04:00:34.160Z,15.57
2018-06-22T04:03:05.964Z,15.73
2018-06-22T04:05:36.419Z,15.53
2018-06-22T04:08:06.831Z,15.33
2018-06-22T04:10:38.358Z,15.97
2018-06-22T04:13:09.019Z,15.50
2018-06-22T04:15:39.713Z,15.23
2018-06-22T04:18:09.458Z,14.60
2018-06-22T04:20:39.234Z,14.27
2018-06-22T04:23:09.224Z,14.43
2018-06-22T04:25:39.107Z,13.37
2018-06-22T04:28:09.034Z,14.33
2018-06-22T04:30:38.982Z,14.67
2018-06-22T04:33:09.006Z,14.77
2018-06-22T04:35:39.258Z,14.27
2018-06-22T04:38:09.050Z,15.70
2018-06-22T04:40:38.808Z,13.37
2018-06-22T04:43:08.843Z,12.87
2018-06-22T04:45:38.829Z,11.60
2018-06-22T04:48:08.618Z,12.70
2018-06-22T04:50:38.554Z,12.20
2018-06-22T04:53:08.557Z,12.47
2018-06-22T04:55:38.525Z,13.03
2018-06-22T04:58:08.371Z,12.30
2018-06-22T05:00:38.148Z,12.17
2018-06-22T05:03:08.073Z,11.83
2018-06-22T05:05:38.086Z,11.53
2018-06-22T05:08:08.156Z,10.90
2018-06-22T05:10:38.091Z,12.03
2018-06-22T05:13:07.974Z,11.13
2018-06-22T05:15:37.976Z,11.67
2018-06-22T05:18:07.801Z,10.90
2018-06-22T05:20:37.624Z,10.70
2018-06-22T05:23:07.931Z,12.20
2018-06-22T05:25:37.975Z,10.20
2018-06-22T05:28:07.836Z,10.10
2018-06-22T05:30:37.846Z,9.67
2018-06-22T05:33:07.692Z,9.40
2018-06-22T05:35:37.675Z,9.43
2018-06-22T05:38:07.863Z,10.67
2018-06-22T05:40:37.568Z,9.43
2018-06-22T05:43:07.568Z,8.40
2018-06-22T05:45:37.428Z,9.53
2018-06-22T05:48:07.219Z,8.30
2018-06-22T05:50:37.168Z,7.87
2018-06-22T05:53:07.172Z,8.53
2018-06-22T05:55:37.107Z,7.27
2018-06-22T05:58:07.003Z,7.63
2018-06-22T06:00:36.899Z,8.03
2018-06-22T06:03:06.863Z,7.90
2018-06-22T06:05:36.983Z,7.73
2018-06-22T06:08:07.018Z,8.57
2018-06-22T06:10:37.055Z,7.17
2018-06-22T06:13:07.003Z,7.33
2018-06-22T06:15:37.205Z,6.83
2018-06-22T06:18:07.137Z,6.97
2018-06-22T06:20:36.884Z,8.10
2018-06-22T06:23:07.007Z,7.27
2018-06-22T06:25:36.989Z,9.53
2018-06-22T06:28:07.033Z,7.80
2018-06-22T06:30:36.940Z,7.90
2018-06-22T06:33:06.957Z,7.67
2018-06-22T06:35:36.830Z,7.43
2018-06-22T06:38:06.823Z,7.43
2018-06-22T06:40:36.691Z,8.07
2018-06-22T06:43:06.694Z,8.77
2018-06-22T06:45:36.911Z,8.37
2018-06-22T06:48:06.907Z,8.53
2018-06-22T06:50:36.842Z,8.80
2018-06-22T06:53:06.927Z,8.87
2018-06-22T06:55:36.831Z,8.43
2018-06-22T06:58:06.696Z,8.60
2018-06-22T07:00:36.640Z,9.00
2018-06-22T07:03:06.852Z,8.20
2018-06-22T07:05:36.879Z,8.50
2018-06-22T07:08:07.095Z,8.60
2018-06-22T07:10:37.210Z,8.20
2018-06-22T07:13:07.118Z,9.00
2018-06-22T07:15:40.921Z,8.00
2018-06-22T07:18:11.076Z,8.30
2018-06-22T07:20:41.078Z,8.13
2018-06-22T07:23:10.898Z,8.80
2018-06-22T07:25:40.769Z,8.00
2018-06-22T07:28:10.772Z,8.50
2018-06-22T07:30:40.578Z,8.93
2018-06-22T07:33:11.539Z,9.23
2018-06-22T07:35:41.323Z,8.50
2018-06-22T07:38:11.195Z,8.80
2018-06-22T07:40:41.321Z,9.30
2018-06-22T07:43:11.203Z,9.13
2018-06-22T07:45:41.125Z,10.03
2018-06-22T07:48:10.933Z,9.57
2018-06-22T07:50:40.799Z,9.53
2018-06-22T07:53:10.762Z,9.77
2018-06-22T07:55:40.579Z,11.20
2018-06-22T07:58:10.380Z,9.57
2018-06-22T08:00:40.254Z,9.43
2018-06-22T08:03:10.185Z,8.50
2018-06-22T08:05:40.147Z,9.10
2018-06-22T08:08:10.050Z,9.47
2018-06-22T08:10:40.653Z,9.03
2018-06-22T08:13:10.512Z,9.33
2018-06-22T08:15:40.496Z,8.70
2018-06-22T08:18:10.291Z,8.50
2018-06-22T08:20:40.122Z,8.10
2018-06-22T08:23:10.016Z,9.17
2018-06-22T08:25:40.018Z,8.57
2018-06-22T08:28:09.980Z,8.30
2018-06-22T08:30:39.912Z,9.27
2018-06-22T08:33:09.938Z,8.80
2018-06-22T08:35:39.839Z,8.53
2018-06-22T08:38:09.706Z,8.37
2018-06-22T08:40:39.496Z,8.67
2018-06-22T08:43:09.451Z,9.20
2018-06-22T08:45:39.300Z,8.57
2018-06-22T08:48:09.179Z,8.27
2018-06-22T08:50:39.145Z,8.60
2018-06-22T08:53:09.092Z,9.00
2018-06-22T08:55:39.151Z,8.70
2018-06-22T08:58:09.012Z,8.33
2018-06-22T09:00:38.852Z,8.57
2018-06-22T09:03:08.982Z,8.43
2018-06-22T09:05:38.904Z,8.57
2018-06-22T09:08:08.915Z,14.53
2018-06-22T09:10:38.896Z,8.13
2018-06-22T09:13:08.924Z,9.00
2018-06-22T09:15:38.852Z,8.88
2018-06-22T09:18:08.722Z,8.23
2018-06-22T09:20:38.528Z,7.87
2018-06-22T09:23:08.411Z,7.95
2018-06-22T09:25:38.261Z,7.33
2018-06-22T09:28:08.043Z,7.93
2018-06-22T09:30:37.963Z,7.45
2018-06-22T09:33:07.807Z,7.83
2018-06-22T09:35:37.792Z,7.55
2018-06-22T09:38:07.615Z,7.97
2018-06-22T09:40:37.403Z,7.42
2018-06-22T09:43:07.291Z,8.10
2018-06-22T09:45:37.048Z,7.85
2018-06-22T09:48:06.938Z,7.55
2018-06-22T09:50:36.760Z,7.70
2018-06-22T09:53:06.827Z,7.60
2018-06-22T09:55:36.665Z,7.40
2018-06-22T09:58:07.432Z,7.03
2018-06-22T10:00:37.253Z,6.50
2018-06-22T10:03:07.100Z,9.40
2018-06-22T10:05:36.950Z,6.47
2018-06-22T10:08:06.827Z,6.53
2018-06-22T10:10:36.641Z,7.40
2018-06-22T10:13:06.676Z,7.12
2018-06-22T10:15:36.554Z,6.87
2018-06-22T10:18:06.427Z,7.35
2018-06-22T10:20:36.271Z,6.80
2018-06-22T10:23:06.174Z,6.15
2018-06-22T10:25:36.005Z,6.30
2018-06-22T10:28:06.215Z,6.90
2018-06-22T10:30:36.059Z,6.50
2018-06-22T10:33:06.257Z,6.45
2018-06-22T10:35:36.084Z,6.70
2018-06-22T10:38:06.117Z,6.87
2018-06-22T10:40:36.320Z,6.80
2018-06-22T10:43:06.334Z,7.03
2018-06-22T10:45:36.236Z,6.85
2018-06-22T10:48:06.091Z,7.28
2018-06-22T10:50:35.900Z,7.20
2018-06-22T10:53:05.832Z,7.10
2018-06-22T10:55:35.794Z,6.50
2018-06-22T10:58:06.547Z,6.45
2018-06-22T11:00:36.410Z,7.33
2018-06-22T11:03:06.459Z,6.75
2018-06-22T11:05:36.342Z,6.83
2018-06-22T11:08:06.279Z,6.50
2018-06-22T11:10:36.182Z,6.20
2018-06-22T11:13:06.226Z,6.50
2018-06-22T11:15:36.178Z,6.60
2018-06-22T11:18:06.074Z,6.42
2018-06-22T11:20:35.923Z,6.72
2018-06-22T11:23:05.922Z,6.78
2018-06-22T11:25:35.932Z,6.08
2018-06-22T11:28:05.805Z,5.87
2018-06-22T11:30:35.735Z,5.95
2018-06-22T11:33:05.666Z,6.20
2018-06-22T11:35:35.592Z,6.30
2018-06-22T11:38:05.514Z,5.53
2018-06-22T11:40:35.516Z,5.97
2018-06-22T11:43:05.459Z,5.87
2018-06-22T11:45:35.451Z,5.37
2018-06-22T11:48:05.525Z,6.03
2018-06-22T11:50:35.645Z,5.95
2018-06-22T11:53:05.803Z,5.95
2018-06-22T11:55:35.904Z,5.80
2018-06-22T11:58:06.137Z,5.67
2018-06-22T12:00:36.030Z,4.83
2018-06-22T12:03:06.644Z,5.50
2018-06-22T12:05:36.494Z,5.92
2018-06-22T12:08:06.503Z,5.50
2018-06-22T12:10:36.331Z,5.83
2018-06-22T12:13:06.318Z,5.97
2018-06-22T12:15:36.314Z,5.78
2018-06-22T12:18:06.555Z,5.97
2018-06-22T12:20:36.496Z,5.55
2018-06-22T12:23:06.519Z,6.00
2018-06-22T12:25:36.378Z,6.15
2018-06-22T12:28:06.625Z,6.15
2018-06-22T12:30:36.536Z,5.90
2018-06-22T12:33:06.706Z,6.47
2018-06-22T12:35:36.608Z,8.88
2018-06-22T12:38:06.594Z,5.97
2018-06-22T12:40:36.470Z,6.28
2018-06-22T12:43:06.473Z,6.60
2018-06-22T12:45:36.286Z,6.30
2018-06-22T12:48:06.194Z,6.25
2018-06-22T12:50:36.115Z,6.10
2018-06-22T12:53:06.423Z,6.20
2018-06-22T12:55:36.541Z,6.55
2018-06-22T12:58:06.663Z,6.22
2018-06-22T13:00:36.645Z,6.00
2018-06-22T13:03:06.835Z,6.10
2018-06-22T13:05:36.884Z,6.62
2018-06-22T13:08:06.909Z,6.00
2018-06-22T13:10:37.098Z,6.03
2018-06-22T13:13:07.281Z,6.78
2018-06-22T13:15:37.229Z,7.47
2018-06-22T13:18:07.269Z,6.00
2018-06-22T13:20:37.403Z,6.50
2018-06-22T13:23:07.344Z,7.30
2018-06-22T13:25:37.204Z,7.00
2018-06-22T13:28:07.675Z,6.83
2018-06-22T13:30:37.869Z,6.77
2018-06-22T13:33:07.932Z,6.50
2018-06-22T13:35:37.974Z,5.90
2018-06-22T13:38:08.147Z,5.70
2018-06-22T13:40:37.998Z,6.40
2018-06-22T13:43:07.911Z,6.17
2018-06-22T13:45:37.865Z,5.57
2018-06-22T13:48:08.175Z,5.53
2018-06-22T13:50:38.377Z,4.67
2018-06-22T13:53:09.234Z,4.77
2018-06-22T13:55:39.743Z,4.90
2018-06-22T13:58:09.681Z,4.63
2018-06-22T14:00:39.750Z,4.70
2018-06-22T14:03:09.672Z,4.77
2018-06-22T14:05:44.648Z,4.93
2018-06-22T14:08:14.691Z,6.07
2018-06-22T14:10:44.681Z,5.63
2018-06-22T14:13:14.695Z,5.30
2018-06-22T14:15:44.497Z,5.17
2018-06-22T14:18:14.357Z,5.27
2018-06-22T14:20:44.605Z,5.80
2018-06-22T14:23:14.758Z,5.67
2018-06-22T14:25:44.556Z,5.37
2018-06-22T14:28:14.718Z,5.60
2018-06-22T14:30:44.774Z,6.40
2018-06-22T14:33:14.750Z,5.53
2018-06-22T14:35:44.938Z,5.77
2018-06-22T14:38:14.853Z,5.40
2018-06-22T14:40:44.699Z,5.37
2018-06-22T14:43:14.727Z,5.43
2018-06-22T14:45:44.552Z,5.77
2018-06-22T14:48:14.423Z,4.90
2018-06-22T14:50:44.346Z,4.63
2018-06-22T14:53:19.518Z,4.13
2018-06-22T14:55:54.588Z,4.30
2018-06-22T14:58:29.846Z,3.83
2018-06-22T15:02:08.480Z,4.07
2018-06-22T15:04:43.864Z,3.80
2018-06-22T15:07:18.832Z,4.13
2018-06-22T15:09:48.866Z,3.93
2018-06-22T15:12:18.660Z,4.27
2018-06-22T15:14:48.446Z,4.20
2018-06-22T15:17:18.248Z,4.87
2018-06-22T15:19:48.147Z,4.20
2018-06-22T15:22:17.931Z,3.80
2018-06-22T15:24:47.775Z,4.10
2018-06-22T15:27:17.581Z,4.60
2018-06-22T15:29:47.393Z,4.90
2018-06-22T15:32:17.287Z,4.97
2018-06-22T15:34:52.235Z,5.30
2018-06-22T15:37:27.355Z,5.47
2018-06-22T15:40:02.166Z,5.43
2018-06-22T15:42:37.009Z,5.20
2018-06-22T15:45:11.906Z,5.57
2018-06-22T15:47:46.920Z,5.40
2018-06-22T15:50:21.821Z,5.70
2018-06-22T15:52:56.876Z,5.20
2018-06-22T15:55:29.143Z,5.13
2018-06-22T15:57:58.897Z,5.30
2018-06-22T16:00:28.686Z,4.87
2018-06-22T16:03:03.698Z,5.10
2018-06-22T16:05:33.493Z,4.30
2018-06-22T16:08:03.481Z,4.13
2018-06-22T16:10:33.338Z,4.27
2018-06-22T16:13:05.809Z,4.13
2018-06-22T16:15:40.769Z,4.50
2018-06-22T16:18:15.873Z,4.40
2018-06-22T16:20:50.738Z,5.20
2018-06-22T16:23:25.577Z,5.30
2018-06-22T16:26:00.692Z,4.93
2018-06-22T16:28:30.527Z,4.90
2018-06-22T16:31:00.295Z,5.17
2018-06-22T16:33:30.137Z,5.47
2018-06-22T16:36:00.042Z,5.87
2018-06-22T16:38:29.822Z,5.57
2018-06-22T16:40:59.632Z,5.87
2018-06-22T16:43:29.462Z,6.47
2018-06-22T16:45:59.404Z,6.50
2018-06-22T16:48:29.277Z,6.57
2018-06-22T16:50:59.128Z,6.90
2018-06-22T16:53:28.919Z,6.97
2018-06-22T16:55:58.812Z,7.40
2018-06-22T16:58:33.650Z,7.03
2018-06-22T17:01:03.416Z,7.53
2018-06-22T17:03:33.297Z,7.60
2018-06-22T17:06:04.229Z,8.03
2018-06-22T17:08:39.256Z,7.30
2018-06-22T17:11:14.383Z,7.77
2018-06-22T17:13:49.414Z,8.10
2018-06-22T17:16:24.499Z,7.67
2018-06-22T17:18:56.089Z,7.83
2018-06-22T17:21:26.021Z,7.80
2018-06-22T17:23:55.773Z,8.73
2018-06-22T17:26:25.604Z,8.27
2018-06-22T17:28:55.394Z,8.30
2018-06-22T17:31:25.198Z,8.90
2018-06-22T17:33:55.381Z,8.60
2018-06-22T17:36:25.132Z,8.87
2018-06-22T17:38:54.953Z,8.40
2018-06-22T17:41:24.796Z,9.27
2018-06-22T17:43:54.640Z,8.50
2018-06-22T17:46:24.474Z,8.17
2018-06-22T17:48:54.275Z,8.47
2018-06-22T17:51:24.263Z,9.17
2018-06-22T17:53:54.039Z,8.80
2018-06-22T17:56:29.054Z,8.97
2018-06-22T17:59:04.007Z,9.13
2018-06-22T18:01:39.083Z,9.23
2018-06-22T18:04:14.349Z,9.17
2018-06-22T18:06:49.422Z,8.97
2018-06-22T18:09:24.341Z,8.47
2018-06-22T18:11:59.364Z,9.07
2018-06-22T18:14:29.213Z,8.80
2018-06-22T18:16:58.991Z,8.87
2018-06-22T18:19:28.677Z,8.70
2018-06-22T18:21:58.409Z,8.30
2018-06-22T18:24:28.215Z,8.90
2018-06-22T18:26:57.991Z,8.60
2018-06-22T18:29:28.729Z,8.73
2018-06-22T18:31:58.611Z,8.63
2018-06-22T18:34:28.420Z,8.70
2018-06-22T18:36:58.218Z,8.30
2018-06-22T18:39:28.069Z,8.27
2018-06-22T18:41:59.121Z,8.00
2018-06-22T18:44:28.977Z,7.83
2018-06-22T18:46:58.793Z,7.40
2018-06-22T18:49:28.630Z,8.00
2018-06-22T18:52:03.497Z,7.50
2018-06-22T18:54:38.366Z,7.00
2018-06-22T18:57:13.367Z,7.07
2018-06-22T18:59:47.286Z,6.40
2018-06-22T19:06:02.574Z,6.97
2018-06-22T19:08:32.417Z,7.67
2018-06-22T19:11:02.211Z,7.70
2018-06-22T19:13:32.069Z,7.93
2018-06-22T19:16:01.841Z,8.43
2018-06-22T19:18:31.690Z,8.63
2018-06-22T19:21:01.620Z,8.20
2018-06-22T19:23:31.434Z,8.90
2018-06-22T19:26:01.281Z,9.53
2018-06-22T19:28:31.228Z,9.67
2018-06-22T19:31:01.033Z,9.23
2018-06-22T19:33:30.891Z,9.47
2018-06-22T19:36:00.699Z,10.10
2018-06-22T19:38:30.488Z,10.50
2018-06-22T19:41:00.467Z,10.83
2018-06-22T19:43:35.409Z,9.93
2018-06-22T19:46:11.477Z,10.83
2018-06-22T19:48:46.454Z,10.77
2018-06-22T19:51:21.291Z,10.23
2018-06-22T19:53:59.182Z,10.73
2018-06-22T19:56:30.267Z,10.83
2018-06-22T19:59:01.192Z,10.70
2018-06-22T20:01:31.350Z,10.93
2018-06-22T20:04:01.285Z,10.87
2018-06-22T20:06:31.727Z,11.73
2018-06-22T20:09:01.739Z,12.17
2018-06-22T20:11:31.607Z,10.80
2018-06-22T20:14:02.723Z,11.80
2018-06-22T20:16:33.329Z,11.47
2018-06-22T20:19:04.206Z,10.80
2018-06-22T20:21:35.035Z,11.50
2018-06-22T20:24:06.252Z,12.93
2018-06-22T20:26:37.346Z,12.30
2018-06-22T20:29:07.499Z,11.83
2018-06-22T20:31:42.520Z,12.90
2018-06-22T20:34:19.118Z,12.27
2018-06-22T20:36:55.599Z,12.70
2018-06-22T20:39:32.951Z,12.57
2018-06-22T20:42:09.421Z,12.63
2018-06-22T20:44:45.866Z,13.37
2018-06-22T20:47:21.607Z,13.27
2018-06-22T20:49:58.592Z,14.20
2018-06-22T20:52:30.175Z,13.80
2018-06-22T20:55:00.875Z,14.77
2018-06-22T20:57:31.843Z,14.23
2018-06-22T21:00:02.853Z,14.13
2018-06-22T21:02:33.680Z,13.53
2018-06-22T21:05:05.567Z,13.47
2018-06-22T21:07:36.487Z,13.73
2018-06-22T21:10:07.564Z,13.40
2018-06-22T21:12:40.412Z,12.73
2018-06-22T21:15:09.460Z,12.30
2018-06-22T21:17:40.226Z,12.27
2018-06-22T21:20:11.010Z,11.70
2018-06-22T21:22:41.782Z,12.20
2018-06-22T21:25:12.466Z,11.27
2018-06-22T21:27:48.534Z,11.70
2018-06-22T21:30:24.678Z,11.70
2018-06-22T21:33:00.746Z,11.43
2018-06-22T21:35:37.549Z,11.07
2018-06-22T21:38:13.564Z,10.70
2018-06-22T21:40:45.019Z,10.53
2018-06-22T21:43:15.665Z,9.80
2018-06-22T21:45:46.589Z,9.60
2018-06-22T21:48:17.405Z,9.63
2018-06-22T21:50:47.561Z,9.40
2018-06-22T21:53:18.248Z,9.47
2018-06-22T21:55:48.902Z,9.97
2018-06-22T21:58:19.561Z,9.77
2018-06-22T22:00:50.531Z,10.00
2018-06-22T22:03:21.201Z,9.97
2018-06-22T22:05:51.706Z,10.33
2018-06-22T22:08:22.412Z,10.20
2018-06-22T22:10:59.260Z,11.47
2018-06-22T22:13:30.095Z,11.00
2018-06-22T22:16:01.102Z,10.80
2018-06-22T22:18:32.137Z,11.60
2018-06-22T22:21:02.695Z,11.77
2018-06-22T22:23:33.428Z,10.90
2018-06-22T22:26:04.487Z,11.33
2018-06-22T22:28:35.396Z,11.77
2018-06-22T22:31:05.384Z,12.20
2018-06-22T22:33:36.153Z,12.37
2018-06-22T22:36:07.101Z,12.63
2018-06-22T22:38:37.594Z,13.53
2018-06-22T22:41:09.096Z,13.13
2018-06-22T22:43:39.638Z,13.60
2018-06-22T22:46:10.329Z,13.93
2018-06-22T22:48:41.451Z,13.33
2018-06-22T22:51:12.314Z,13.20
2018-06-22T22:53:42.360Z,14.13
2018-06-22T22:56:13.339Z,14.27
2018-06-22T22:58:44.129Z,14.63
2018-06-22T23:01:14.831Z,15.37
2018-06-22T23:03:45.558Z,15.83
2018-06-22T23:06:16.554Z,17.13
2018-06-22T23:08:47.246Z,15.77
2018-06-22T23:11:17.840Z,16.03
2018-06-22T23:13:48.756Z,17.33
2018-06-22T23:16:19.470Z,17.10
2018-06-22T23:18:50.251Z,16.37
2018-06-22T23:21:20.736Z,17.83
2018-06-22T23:23:51.508Z,16.43
2018-06-22T23:26:22.303Z,16.17
2018-06-22T23:28:52.783Z,16.27
2018-06-22T23:31:23.816Z,16.47
2018-06-22T23:33:54.926Z,16.47
2018-06-22T23:36:25.612Z,16.60
2018-06-22T23:38:56.349Z,15.77
2018-06-22T23:41:27.002Z,15.43
2018-06-22T23:43:57.732Z,17.50
2018-06-22T23:46:28.160Z,16.87
2018-06-22T23:48:58.785Z,17.53
2018-06-22T23:51:29.521Z,15.30
2018-06-22T23:54:00.579Z,15.87
2018-06-22T23:56:31.495Z,17.03
2018-06-22T23:59:02.195Z,16.13
